Time;durP1;ratioP1;P1;durP2;ratioP2;P2;SDS_P1;SDS_P2;PMS_P1;PMS_P2;Temp;Humidity;BMP_temperature;BMP_pressure;BME280_temperature;BME280_humidity;BME280_pressure;Samples;Min_cycle;Max_cycle;Signal;HPM_P1;HPM_P2
2023/05/21 00:01:09;;;;;;;2.70;0.60;;;20.10;96.20;;;;;;5071500;28;20184;-68
2023/05/21 00:03:40;;;;;;;1.87;0.57;;;20.10;97.00;;;;;;5071756;28;20180;-69
2023/05/21 00:06:07;;;;;;;2.93;0.70;;;19.70;93.40;;;;;;5072648;28;20229;-69
2023/05/21 00:08:35;;;;;;;5.80;0.70;;;19.20;94.50;;;;;;5072904;28;20257;-67
2023/05/21 00:11:02;;;;;;;3.67;1.23;;;19.60;96.10;;;;;;5072746;28;20207;-69
2023/05/21 00:13:29;;;;;;;3.27;0.63;;;19.60;94.50;;;;;;5072561;28;20226;-69
2023/05/21 00:15:57;;;;;;;2.70;0.63;;;19.60;93.90;;;;;;5074539;28;20575;-67
2023/05/21 00:18:25;;;;;;;6.97;0.60;;;19.80;94.50;;;;;;5072607;28;20172;-69
2023/05/21 00:20:53;;;;;;;3.60;0.60;;;20.10;92.90;;;;;;5072550;28;20259;-69
2023/05/21 00:23:20;;;;;;;1.23;0.30;;;20.60;90.90;;;;;;5072896;28;20199;-70
2023/05/21 00:25:49;;;;;;;2.67;0.50;;;20.30;91.70;;;;;;5071872;28;20171;-70
2023/05/21 00:28:16;;;;;;;0.60;0.40;;;20.30;90.20;;;;;;5071910;28;20234;-68
2023/05/21 00:30:43;;;;;;;1.77;0.60;;;20.30;90.80;;;;;;5071905;28;20175;-70
2023/05/21 00:33:12;;;;;;;4.13;0.50;;;20.40;90.90;;;;;;5072027;28;20176;-70
2023/05/21 00:35:40;;;;;;;1.63;0.50;;;19.80;91.50;;;;;;5072490;28;20765;-72
2023/05/21 00:38:07;;;;;;;6.73;0.73;;;19.80;91.80;;;;;;5071601;28;20219;-70
2023/05/21 00:40:36;;;;;;;2.13;0.40;;;20.30;93.10;;;;;;5072287;28;20171;-71
2023/05/21 00:43:03;;;;;;;1.20;0.50;;;20.10;90.20;;;;;;5066322;28;20259;-70
2023/05/21 00:45:30;;;;;;;0.83;0.47;;;20.00;89.20;;;;;;5071910;28;20229;-69
2023/05/21 00:47:58;;;;;;;3.40;0.50;;;20.10;91.30;;;;;;5074457;28;20234;-70
2023/05/21 00:50:29;;;;;;;3.30;0.40;;;20.00;90.40;;;;;;5076137;28;20198;-68
2023/05/21 00:52:58;;;;;;;2.47;0.60;;;20.20;90.40;;;;;;5077069;28;20191;-69
2023/05/21 00:55:26;;;;;;;2.50;0.63;;;20.40;90.00;;;;;;5076854;28;20221;-71
2023/05/21 00:57:54;;;;;;;5.40;0.67;;;20.10;90.30;;;;;;5070958;28;20284;-71
2023/05/21 01:00:23;;;;;;;1.00;0.50;;;20.00;90.90;;;;;;5071823;28;20175;-69
2023/05/21 01:02:50;;;;;;;0.63;0.40;;;20.30;91.10;;;;;;5070792;28;20186;-71
2023/05/21 01:05:18;;;;;;;0.30;0.30;;;20.70;90.40;;;;;;5070816;28;20174;-69
2023/05/21 01:07:47;;;;;;;0.77;0.50;;;20.60;88.30;;;;;;5070730;28;20211;-70
2023/05/21 01:10:14;;;;;;;0.90;0.40;;;20.20;88.60;;;;;;5069496;28;20597;-70
2023/05/21 01:12:43;;;;;;;2.30;0.50;;;20.50;88.80;;;;;;5069665;28;20279;-69
2023/05/21 01:18:36;;;;;;;1.13;0.40;;;20.80;90.00;;;;;;5067294;28;20772;-69
2023/05/21 01:21:06;;;;;;;2.33;0.50;;;21.10;86.30;;;;;;5051334;28;20199;-68
2023/05/21 01:23:33;;;;;;;2.53;0.30;;;21.20;86.50;;;;;;5067831;28;20750;-69
2023/05/21 01:26:01;;;;;;;0.20;0.20;;;21.50;83.00;;;;;;5068625;28;20945;-70
2023/05/21 01:28:28;;;;;;;0.40;0.40;;;21.40;81.90;;;;;;5067665;28;20215;-70
2023/05/21 01:30:58;;;;;;;0.70;0.37;;;21.40;82.00;;;;;;5068604;28;20271;-68
2023/05/21 01:33:40;;;;;;;0.87;0.40;;;21.30;84.10;;;;;;5068195;28;20243;-68
2023/05/21 01:36:23;;;;;;;1.70;0.40;;;21.50;84.00;;;;;;5067781;28;20572;-68
2023/05/21 01:39:19;;;;;;;0.40;0.30;;;21.50;81.90;;;;;;5070322;28;20677;-69
2023/05/21 01:41:49;;;;;;;0.63;0.23;;;21.80;81.50;;;;;;5071991;28;20216;-69
2023/05/21 01:44:18;;;;;;;0.20;0.20;;;21.70;77.70;;;;;;5071696;28;20198;-70
2023/05/21 01:46:45;;;;;;;0.70;0.30;;;21.80;78.10;;;;;;5072076;28;21008;-71
2023/05/21 01:49:13;;;;;;;3.73;0.20;;;21.80;78.00;;;;;;5072062;28;20282;-68
2023/05/21 01:51:41;;;;;;;0.20;0.20;;;21.20;77.30;;;;;;5054848;28;20172;-69
2023/05/21 01:54:08;;;;;;;0.57;0.30;;;21.40;78.50;;;;;;5072157;28;20282;-69
2023/05/21 01:56:35;;;;;;;0.30;0.20;;;21.50;80.00;;;;;;5074072;28;20180;-69
2023/05/21 01:59:03;;;;;;;0.20;0.20;;;21.70;79.10;;;;;;5073548;28;20187;-70
2023/05/21 02:01:30;;;;;;;2.97;0.40;;;21.60;80.00;;;;;;5073346;28;20545;-72
2023/05/21 02:03:58;;;;;;;0.20;0.20;;;21.80;78.40;;;;;;5074113;28;20514;-72
2023/05/21 02:06:25;;;;;;;1.60;0.30;;;21.70;76.30;;;;;;5073036;28;20176;-69
2023/05/21 02:08:54;;;;;;;1.13;0.20;;;22.00;79.70;;;;;;5073646;28;20188;-72
2023/05/21 02:11:22;;;;;;;0.97;0.30;;;21.50;76.70;;;;;;5074037;28;20198;-70
2023/05/21 02:13:49;;;;;;;0.20;0.20;;;21.60;75.40;;;;;;5073109;28;20180;-72
2023/05/21 02:16:18;;;;;;;0.20;0.20;;;22.30;75.50;;;;;;5072723;28;20179;-69
2023/05/21 02:18:46;;;;;;;0.20;0.20;;;22.70;71.30;;;;;;5073043;28;20272;-71
2023/05/21 02:21:14;;;;;;;0.37;0.30;;;22.20;69.20;;;;;;5073346;28;20188;-71
2023/05/21 02:23:41;;;;;;;1.37;0.40;;;22.50;70.20;;;;;;5073708;28;20180;-70
2023/05/21 02:26:09;;;;;;;3.70;0.23;;;22.40;69.40;;;;;;5073554;28;20248;-70
2023/05/21 02:28:36;;;;;;;0.30;0.20;;;22.50;70.60;;;;;;5073157;28;20306;-70
2023/05/21 02:31:04;;;;;;;0.23;0.23;;;22.20;70.00;;;;;;5073792;28;20172;-70
2023/05/21 02:33:31;;;;;;;0.33;0.27;;;22.30;71.50;;;;;;5073730;28;20232;-71
2023/05/21 02:35:58;;;;;;;0.10;0.10;;;22.80;69.10;;;;;;5073142;28;20634;-70
2023/05/21 02:38:26;;;;;;;0.87;0.27;;;23.30;65.90;;;;;;5073369;28;20223;-71
2023/05/21 02:40:53;;;;;;;0.40;0.30;;;23.10;64.70;;;;;;5073447;28;20213;-71
2023/05/21 02:43:20;;;;;;;2.53;0.37;;;22.60;66.90;;;;;;5072984;28;20176;-72
2023/05/21 02:45:50;;;;;;;4.87;0.60;;;22.70;63.70;;;;;;5072143;28;20215;-72
2023/05/21 02:48:17;;;;;;;0.40;0.23;;;22.30;64.00;;;;;;5073264;28;20579;-69
2023/05/21 02:50:44;;;;;;;0.30;0.30;;;21.70;66.60;;;;;;5072562;28;20179;-71
2023/05/21 02:53:12;;;;;;;0.33;0.33;;;21.30;68.00;;;;;;5073308;28;20168;-70
2023/05/21 02:55:40;;;;;;;0.53;0.30;;;21.90;71.30;;;;;;5073119;28;20175;-72
2023/05/21 02:58:08;;;;;;;0.20;0.20;;;22.10;68.20;;;;;;5072773;28;20273;-71
2023/05/21 03:00:35;;;;;;;0.30;0.30;;;21.80;66.90;;;;;;5073058;28;20188;-72
2023/05/21 03:03:02;;;;;;;0.93;0.30;;;22.20;69.50;;;;;;5073139;28;20653;-72
2023/05/21 03:08:52;;;;;;;2.83;0.37;;;21.60;76.30;;;;;;5072302;28;20209;-70
2023/05/21 03:11:21;;;;;;;2.10;0.40;;;21.90;78.10;;;;;;5072369;28;20666;-69
2023/05/21 03:13:48;;;;;;;3.20;0.50;;;21.60;76.30;;;;;;5072911;28;20687;-74
2023/05/21 03:16:16;;;;;;;0.30;0.30;;;21.00;79.20;;;;;;5072686;28;20168;-69
2023/05/21 03:18:43;;;;;;;0.80;0.50;;;20.80;81.30;;;;;;5072224;28;20178;-70
2023/05/21 03:21:12;;;;;;;2.00;0.47;;;21.00;83.30;;;;;;5072689;28;20168;-73
2023/05/21 03:23:40;;;;;;;3.30;0.43;;;21.30;82.20;;;;;;5072709;28;20202;-70
2023/05/21 03:26:08;;;;;;;2.00;0.40;;;21.30;81.20;;;;;;5071666;28;20172;-70
2023/05/21 03:28:35;;;;;;;0.30;0.30;;;21.80;82.10;;;;;;5070888;28;20219;-72
2023/05/21 03:31:03;;;;;;;0.30;0.30;;;21.80;78.20;;;;;;5071044;28;20176;-73
2023/05/21 03:33:30;;;;;;;0.60;0.53;;;21.00;80.00;;;;;;5070694;28;20317;-75
2023/05/21 03:35:57;;;;;;;2.53;0.57;;;20.20;87.30;;;;;;5072504;28;20170;-70
2023/05/21 03:38:25;;;;;;;2.73;0.83;;;19.60;90.70;;;;;;5070882;28;20233;-71
2023/05/21 03:40:53;;;;;;;1.70;0.57;;;19.30;92.40;;;;;;5070460;28;20607;-71
2023/05/21 03:43:20;;;;;;;1.03;0.50;;;19.00;94.10;;;;;;5072008;28;20176;-70
2023/05/21 03:45:48;;;;;;;3.60;0.57;;;19.20;95.00;;;;;;5072295;28;20175;-77
2023/05/21 03:48:15;;;;;;;0.83;0.40;;;19.30;94.30;;;;;;5071783;28;20215;-69
2023/05/21 03:50:42;;;;;;;1.33;0.50;;;19.50;94.50;;;;;;5072251;28;20172;-74
2023/05/21 03:53:10;;;;;;;0.50;0.50;;;19.70;93.50;;;;;;5072101;28;20176;-72
2023/05/21 03:55:37;;;;;;;2.63;0.40;;;19.50;94.40;;;;;;5071601;28;20179;-70
2023/05/21 03:58:05;;;;;;;0.53;0.37;;;19.40;94.90;;;;;;5071993;28;20172;-72
2023/05/21 04:00:33;;;;;;;0.67;0.40;;;19.70;94.40;;;;;;5071576;28;20181;-74
2023/05/21 04:03:00;;;;;;;0.50;0.50;;;19.40;95.60;;;;;;5071495;28;20187;-73
2023/05/21 04:05:28;;;;;;;3.00;0.60;;;19.70;94.70;;;;;;5072091;28;20291;-74
2023/05/21 04:07:57;;;;;;;1.63;0.50;;;20.00;93.20;;;;;;5071703;28;20211;-70
2023/05/21 04:10:25;;;;;;;0.40;0.30;;;19.80;93.30;;;;;;5070016;28;20182;-70
2023/05/21 04:12:53;;;;;;;0.30;0.30;;;20.00;93.00;;;;;;5072028;28;20575;-74
2023/05/21 04:15:20;;;;;;;1.80;0.40;;;19.90;92.20;;;;;;5071832;28;20213;-70
2023/05/21 04:17:49;;;;;;;0.70;0.30;;;19.80;93.50;;;;;;5071164;28;20217;-72
2023/05/21 04:20:16;;;;;;;1.60;0.40;;;19.60;93.90;;;;;;5071702;28;20178;-73
2023/05/21 04:22:43;;;;;;;0.80;0.40;;;19.70;95.20;;;;;;5071620;28;20263;-71
2023/05/21 04:25:11;;;;;;;0.40;0.40;;;19.60;94.80;;;;;;5069940;28;20557;-74
2023/05/21 04:27:38;;;;;;;0.43;0.43;;;19.70;94.50;;;;;;5071551;28;20207;-77
2023/05/21 04:30:06;;;;;;;2.00;0.40;;;19.60;95.20;;;;;;5071659;28;20279;-71
2023/05/21 04:32:34;;;;;;;0.50;0.40;;;19.70;95.00;;;;;;5071348;28;20193;-72
2023/05/21 04:35:01;;;;;;;0.50;0.33;;;19.90;95.80;;;;;;5071986;28;20545;-71
2023/05/21 04:37:30;;;;;;;0.30;0.30;;;19.80;95.40;;;;;;5071579;28;20234;-74
2023/05/21 04:39:57;;;;;;;0.40;0.40;;;19.90;94.70;;;;;;5071145;28;20187;-74
2023/05/21 04:42:25;;;;;;;2.07;0.30;;;19.80;95.10;;;;;;5073038;28;20215;-75
2023/05/21 04:44:54;;;;;;;0.30;0.30;;;19.60;94.60;;;;;;5072681;28;20183;-70
2023/05/21 04:47:21;;;;;;;0.30;0.30;;;19.60;95.30;;;;;;5070634;28;20699;-73
2023/05/21 04:49:49;;;;;;;0.33;0.30;;;19.60;94.60;;;;;;5069930;28;20215;-70
2023/05/21 04:52:17;;;;;;;2.67;0.50;;;19.50;95.20;;;;;;5071280;28;20296;-70
2023/05/21 04:54:44;;;;;;;0.43;0.37;;;19.40;95.80;;;;;;5070756;28;20645;-69
2023/05/21 04:57:12;;;;;;;1.33;0.30;;;19.30;95.70;;;;;;5071435;28;20172;-72
2023/05/21 04:59:40;;;;;;;2.10;0.47;;;19.40;96.60;;;;;;5071199;28;20179;-73
2023/05/21 05:02:07;;;;;;;1.30;0.40;;;19.30;96.60;;;;;;5070854;28;20180;-77
2023/05/21 05:04:35;;;;;;;0.33;0.33;;;19.20;96.50;;;;;;5071048;28;20317;-72
2023/05/21 05:07:02;;;;;;;0.30;0.30;;;19.10;96.30;;;;;;5078529;28;20225;-76
2023/05/21 05:09:30;;;;;;;0.67;0.40;;;19.20;97.20;;;;;;5071798;28;20179;-74
2023/05/21 05:11:57;;;;;;;0.20;0.20;;;19.20;97.40;;;;;;5072223;28;20174;-74
2023/05/21 05:14:25;;;;;;;1.40;0.30;;;19.20;96.50;;;;;;5078548;28;20652;-77
2023/05/21 05:16:52;;;;;;;0.27;0.27;;;18.90;96.70;;;;;;5075355;28;20598;-75
2023/05/21 05:19:20;;;;;;;1.07;0.40;;;18.80;97.50;;;;;;5075058;28;20700;-77
2023/05/21 05:21:47;;;;;;;0.57;0.40;;;18.80;98.50;;;;;;5075893;28;20181;-76
2023/05/21 05:24:15;;;;;;;0.40;0.40;;;18.80;98.30;;;;;;5073342;28;20286;-78
2023/05/21 05:26:42;;;;;;;0.30;0.30;;;18.70;98.60;;;;;;5075093;28;20182;-73
2023/05/21 05:29:09;;;;;;;1.10;0.40;;;18.70;99.50;;;;;;5073422;28;20187;-79
2023/05/21 05:31:37;;;;;;;7.73;0.50;;;18.60;99.90;;;;;;5074513;28;20183;-70
2023/05/21 05:34:04;;;;;;;0.57;0.33;;;18.30;99.90;;;;;;5075077;28;20263;-74
2023/05/21 05:36:32;;;;;;;1.03;0.40;;;18.10;99.90;;;;;;5074921;28;20232;-77
2023/05/21 05:38:59;;;;;;;0.77;0.30;;;17.90;99.90;;;;;;5074438;28;20233;-75
2023/05/21 05:41:27;;;;;;;0.50;0.40;;;17.80;99.90;;;;;;5074882;28;20191;-70
2023/05/21 05:43:54;;;;;;;0.43;0.43;;;17.80;99.90;;;;;;5074913;28;20191;-74
2023/05/21 05:46:21;;;;;;;0.47;0.47;;;17.70;99.90;;;;;;5074302;28;20180;-70
2023/05/21 05:48:49;;;;;;;0.40;0.40;;;17.60;99.90;;;;;;5074541;28;20236;-73
2023/05/21 05:51:16;;;;;;;0.40;0.40;;;17.60;99.90;;;;;;5074690;28;20180;-72
2023/05/21 05:53:43;;;;;;;1.17;0.40;;;17.50;99.90;;;;;;5074302;28;20233;-70
2023/05/21 05:56:11;;;;;;;2.30;0.50;;;17.40;99.90;;;;;;5074508;28;20650;-75
2023/05/21 05:58:38;;;;;;;0.70;0.43;;;17.30;99.90;;;;;;5074371;28;20549;-74
2023/05/21 06:01:06;;;;;;;0.70;0.43;;;17.30;99.90;;;;;;5072755;28;20381;-76
2023/05/21 06:03:33;;;;;;;0.53;0.30;;;17.30;99.90;;;;;;5074508;28;20175;-72
2023/05/21 06:06:00;;;;;;;0.50;0.40;;;17.20;99.90;;;;;;5073060;28;20184;-77
2023/05/21 06:08:28;;;;;;;0.77;0.50;;;17.10;99.90;;;;;;5073770;28;20550;-71
2023/05/21 06:10:55;;;;;;;1.83;0.53;;;17.10;99.90;;;;;;5072925;28;20523;-73
2023/05/21 06:13:22;;;;;;;2.47;0.60;;;17.10;99.90;;;;;;5074309;28;20659;-73
2023/05/21 06:15:50;;;;;;;1.23;0.50;;;17.10;99.90;;;;;;5073680;28;20172;-75
2023/05/21 06:18:17;;;;;;;0.93;0.77;;;17.00;99.90;;;;;;5074127;28;20172;-71
2023/05/21 06:20:44;;;;;;;1.53;0.80;;;17.00;99.90;;;;;;5074148;28;20268;-69
2023/05/21 06:23:12;;;;;;;0.70;0.50;;;16.90;99.90;;;;;;5073608;28;20591;-70
2023/05/21 06:25:40;;;;;;;1.07;0.50;;;16.80;99.90;;;;;;5073646;28;20187;-70
2023/05/21 06:28:07;;;;;;;1.67;0.80;;;16.90;99.90;;;;;;5073879;28;20246;-71
2023/05/21 06:30:38;;;;;;;0.93;0.50;;;16.80;99.90;;;;;;5073357;28;20262;-72
2023/05/21 06:33:05;;;;;;;3.83;0.60;;;16.70;99.90;;;;;;5073803;28;20596;-70
2023/05/21 06:35:35;;;;;;;1.63;0.57;;;16.70;99.90;;;;;;5073809;28;20175;-76
2023/05/21 06:38:03;;;;;;;0.80;0.47;;;16.60;99.90;;;;;;5073454;28;20310;-70
2023/05/21 06:40:30;;;;;;;1.17;0.60;;;16.60;99.90;;;;;;5073480;28;20211;-69
2023/05/21 06:42:58;;;;;;;1.20;0.60;;;16.60;99.90;;;;;;5073923;28;20180;-69
2023/05/21 06:45:26;;;;;;;1.67;0.70;;;16.50;99.90;;;;;;5073169;28;20231;-69
2023/05/21 06:47:53;;;;;;;1.30;0.80;;;16.50;99.90;;;;;;5073612;28;20235;-71
2023/05/21 06:50:20;;;;;;;1.30;0.80;;;16.50;99.90;;;;;;5073478;28;20172;-72
2023/05/21 06:52:48;;;;;;;0.93;0.80;;;16.40;99.90;;;;;;5075154;28;20193;-73
2023/05/21 06:55:15;;;;;;;0.90;0.70;;;16.30;99.90;;;;;;5074700;28;20198;-69
2023/05/21 06:57:42;;;;;;;2.40;0.70;;;16.30;99.90;;;;;;5073372;28;20190;-69
2023/05/21 07:00:11;;;;;;;1.07;0.60;;;16.20;99.90;;;;;;5073086;28;20258;-77
2023/05/21 07:02:38;;;;;;;0.83;0.60;;;16.10;99.90;;;;;;5072386;28;20652;-68
2023/05/21 07:05:06;;;;;;;1.93;0.90;;;16.10;99.90;;;;;;5071609;28;20646;-68
2023/05/21 07:07:33;;;;;;;2.03;0.93;;;16.00;99.90;;;;;;5072317;28;20211;-67
2023/05/21 07:10:01;;;;;;;3.73;0.70;;;15.90;99.90;;;;;;5072431;28;20258;-68
2023/05/21 07:12:28;;;;;;;1.57;0.70;;;15.90;99.90;;;;;;5072600;28;20579;-70
2023/05/21 07:14:57;;;;;;;0.93;0.70;;;15.80;99.90;;;;;;5072679;28;20168;-70
2023/05/21 07:17:25;;;;;;;1.10;0.80;;;15.80;99.90;;;;;;5072622;28;20684;-72
2023/05/21 07:19:52;;;;;;;1.97;0.73;;;15.70;99.90;;;;;;5072399;28;20175;-69
2023/05/21 07:22:19;;;;;;;1.07;0.87;;;15.70;99.90;;;;;;5072299;28;21027;-68
2023/05/21 07:24:47;;;;;;;2.07;1.00;;;15.70;99.90;;;;;;5071070;28;20512;-72
2023/05/21 07:27:14;;;;;;;1.03;0.50;;;15.60;99.90;;;;;;5072290;28;20204;-72
2023/05/21 07:29:41;;;;;;;1.83;0.90;;;15.60;99.90;;;;;;5072289;28;20176;-72
2023/05/21 07:32:09;;;;;;;2.03;1.10;;;15.60;99.90;;;;;;5071812;28;20225;-69
2023/05/21 07:34:36;;;;;;;5.07;0.90;;;15.60;99.90;;;;;;5070859;28;20183;-72
2023/05/21 07:37:04;;;;;;;1.13;0.73;;;15.50;99.90;;;;;;5070009;28;20239;-69
2023/05/21 07:39:31;;;;;;;1.53;0.80;;;15.40;99.90;;;;;;5072095;28;20174;-71
2023/05/21 07:41:59;;;;;;;2.30;0.90;;;15.40;99.90;;;;;;5072077;28;20185;-71
2023/05/21 07:44:26;;;;;;;1.00;0.73;;;15.30;99.90;;;;;;5072082;28;20207;-69
2023/05/21 07:46:54;;;;;;;1.30;0.80;;;15.30;99.90;;;;;;5071417;28;20200;-70
2023/05/21 07:49:22;;;;;;;4.07;1.37;;;15.20;99.90;;;;;;5071941;28;20655;-74
2023/05/21 07:51:49;;;;;;;1.93;0.93;;;15.20;99.90;;;;;;5072104;28;20613;-71
2023/05/21 07:54:17;;;;;;;1.97;1.00;;;15.10;99.90;;;;;;5071679;28;20612;-71
2023/05/21 07:56:44;;;;;;;1.70;1.17;;;15.00;99.90;;;;;;5071841;28;20179;-73
2023/05/21 07:59:13;;;;;;;4.23;1.40;;;14.90;99.90;;;;;;5070647;28;20604;-74
2023/05/21 08:01:42;;;;;;;3.57;0.90;;;14.80;99.90;;;;;;5071513;28;20207;-75
2023/05/21 08:04:09;;;;;;;3.67;1.00;;;14.70;99.90;;;;;;5071494;28;20618;-73
2023/05/21 08:06:37;;;;;;;1.70;1.00;;;14.60;99.90;;;;;;5071655;28;20654;-69
2023/05/21 08:09:05;;;;;;;1.80;0.93;;;14.60;99.90;;;;;;5071292;28;20191;-71
2023/05/21 08:11:33;;;;;;;1.27;0.90;;;14.50;99.90;;;;;;5071868;28;20241;-70
2023/05/21 08:14:00;;;;;;;1.97;0.87;;;14.40;99.90;;;;;;5071787;28;20527;-70
2023/05/21 08:16:28;;;;;;;1.57;0.80;;;14.40;99.90;;;;;;5071088;28;20183;-71
2023/05/21 08:18:55;;;;;;;3.03;1.00;;;14.40;99.90;;;;;;5071785;28;20617;-71
2023/05/21 08:21:23;;;;;;;2.60;1.00;;;14.30;99.90;;;;;;5071850;28;20709;-74
2023/05/21 08:23:52;;;;;;;3.60;1.20;;;14.10;99.90;;;;;;5071757;28;20256;-74
2023/05/21 08:26:20;;;;;;;2.90;1.03;;;14.00;99.90;;;;;;5071892;28;20176;-74
2023/05/21 08:28:48;;;;;;;2.47;1.10;;;14.00;99.90;;;;;;5071856;28;20355;-75
2023/05/21 08:31:17;;;;;;;2.93;1.30;;;13.90;99.90;;;;;;5071182;28;20179;-74
2023/05/21 08:33:51;;;;;;;1.63;1.20;;;13.70;99.90;;;;;;5070413;28;20191;-76
2023/05/21 08:36:18;;;;;;;2.33;1.20;;;13.60;99.90;;;;;;5071232;28;20187;-75
2023/05/21 08:38:46;;;;;;;1.43;0.97;;;13.50;99.90;;;;;;5071216;28;20203;-75
2023/05/21 08:41:13;;;;;;;3.17;1.20;;;13.30;99.90;;;;;;5071537;28;20251;-74
2023/05/21 08:43:41;;;;;;;3.80;1.40;;;13.10;99.90;;;;;;5071367;28;20667;-75
2023/05/21 08:46:09;;;;;;;2.20;1.40;;;13.00;99.90;;;;;;5071209;28;20629;-75
2023/05/21 08:48:37;;;;;;;3.33;1.27;;;12.90;99.90;;;;;;5070634;28;20225;-75
2023/05/21 08:51:05;;;;;;;4.50;1.57;;;12.80;99.90;;;;;;5071366;28;20171;-74
2023/05/21 08:53:33;;;;;;;2.80;1.70;;;12.80;99.90;;;;;;5071118;28;20655;-75
2023/05/21 08:56:02;;;;;;;3.10;1.40;;;12.60;99.90;;;;;;5071276;28;20259;-75
2023/05/21 08:58:32;;;;;;;2.67;1.20;;;12.50;99.90;;;;;;5070808;28;20198;-75
2023/05/21 09:01:00;;;;;;;3.60;1.20;;;12.40;99.90;;;;;;5070964;28;20676;-75
2023/05/21 09:03:28;;;;;;;4.20;1.50;;;12.40;99.90;;;;;;5071368;28;20648;-74
2023/05/21 09:05:56;;;;;;;2.40;1.43;;;12.30;99.90;;;;;;5071083;28;20596;-73
2023/05/21 09:08:31;;;;;;;2.60;1.57;;;12.20;99.90;;;;;;5070356;28;20292;-77
2023/05/21 09:11:01;;;;;;;3.27;1.97;;;12.10;99.90;;;;;;5071009;28;20182;-74
2023/05/21 09:13:31;;;;;;;4.00;1.80;;;12.10;99.90;;;;;;5070728;28;20182;-75
2023/05/21 09:15:59;;;;;;;2.77;1.80;;;12.10;99.90;;;;;;5069779;28;20190;-73
2023/05/21 09:18:26;;;;;;;2.97;2.00;;;12.10;99.90;;;;;;5069626;28;20178;-73
2023/05/21 09:20:55;;;;;;;3.93;1.97;;;12.10;99.90;;;;;;5069114;28;20190;-73
2023/05/21 09:23:22;;;;;;;2.77;1.90;;;12.10;99.90;;;;;;5071118;28;20170;-74
2023/05/21 09:25:51;;;;;;;5.07;2.30;;;12.00;99.90;;;;;;5070811;28;20174;-74
2023/05/21 09:28:19;;;;;;;3.10;2.20;;;12.00;99.90;;;;;;5070391;28;20212;-71
2023/05/21 09:30:49;;;;;;;3.67;2.20;;;11.80;99.90;;;;;;5069294;28;20183;-74
2023/05/21 09:33:30;;;;;;;2.70;2.30;;;11.80;99.90;;;;;;5070627;28;20192;-73
2023/05/21 09:35:57;;;;;;;4.67;2.60;;;11.80;99.90;;;;;;5069865;28;20662;-72
2023/05/21 09:38:25;;;;;;;6.60;1.80;;;11.80;99.90;;;;;;5072100;28;20234;-73
2023/05/21 09:40:56;;;;;;;2.87;1.90;;;11.80;99.90;;;;;;5070832;28;20246;-74
2023/05/21 09:43:23;;;;;;;3.10;1.90;;;11.70;99.90;;;;;;5068955;28;20177;-73
2023/05/21 09:45:55;;;;;;;7.07;2.57;;;11.60;99.90;;;;;;5070008;28;20249;-76
2023/05/21 09:48:42;;;;;;;7.37;2.27;;;11.60;99.90;;;;;;5070417;28;20535;-75
2023/05/21 09:51:14;;;;;;;3.87;2.40;;;11.50;99.90;;;;;;5070295;28;20595;-75
2023/05/21 09:53:53;;;;;;;7.13;2.30;;;11.50;99.90;;;;;;5070444;28;20186;-74
2023/05/21 09:56:25;;;;;;;6.27;3.53;;;11.40;99.90;;;;;;5069113;28;20625;-75
2023/05/21 09:58:54;;;;;;;4.27;3.60;;;11.50;99.90;;;;;;5069923;28;20200;-74
2023/05/21 10:01:23;;;;;;;7.33;4.07;;;11.40;99.90;;;;;;5073663;28;20576;-74
2023/05/21 10:03:58;;;;;;;9.57;4.70;;;11.30;99.90;;;;;;5074068;28;20185;-72
2023/05/21 10:06:28;;;;;;;7.60;5.27;;;11.20;99.90;;;;;;5073366;28;20189;-72
2023/05/21 10:08:58;;;;;;;7.30;5.60;;;11.10;99.90;;;;;;5073837;28;20231;-70
2023/05/21 10:11:29;;;;;;;7.10;5.50;;;11.00;99.90;;;;;;5075322;28;20174;-74
2023/05/21 10:14:08;;;;;;;9.30;5.20;;;10.90;99.90;;;;;;5075363;28;20182;-73
2023/05/21 10:16:36;;;;;;;8.00;5.30;;;10.90;99.90;;;;;;5075286;28;20210;-72
2023/05/21 10:19:09;;;;;;;6.73;4.97;;;10.80;99.90;;;;;;5075001;28;20194;-73
2023/05/21 10:21:38;;;;;;;8.60;4.93;;;10.70;99.90;;;;;;5075302;28;20190;-72
2023/05/21 10:24:08;;;;;;;9.37;4.27;;;10.70;99.90;;;;;;5075460;28;20264;-73
2023/05/21 10:26:37;;;;;;;5.47;3.77;;;10.60;99.90;;;;;;5075250;28;20231;-72
2023/05/21 10:29:04;;;;;;;5.60;3.60;;;10.60;99.90;;;;;;5075117;28;20275;-71
2023/05/21 10:31:32;;;;;;;7.33;3.73;;;10.50;99.90;;;;;;5075084;28;20173;-72
2023/05/21 10:34:02;;;;;;;6.27;3.67;;;10.50;99.90;;;;;;5075314;28;20186;-72
2023/05/21 10:36:31;;;;;;;5.97;3.67;;;10.40;99.90;;;;;;5074721;28;20183;-72
2023/05/21 10:39:01;;;;;;;5.20;4.03;;;10.40;99.90;;;;;;5074831;28;20621;-72
2023/05/21 10:41:35;;;;;;;4.77;3.70;;;10.30;99.90;;;;;;5075160;28;20226;-72
2023/05/21 10:44:37;;;;;;;4.77;3.83;;;10.30;99.90;;;;;;5073962;28;20495;-69
2023/05/21 10:47:29;;;;;;;4.63;3.73;;;10.30;99.90;;;;;;5076626;28;20260;-72
2023/05/21 10:50:14;;;;;;;8.80;4.20;;;10.20;99.90;;;;;;5077077;28;20177;-71
2023/05/21 10:53:18;;;;;;;5.40;4.27;;;10.20;99.90;;;;;;5075765;28;20178;-69
2023/05/21 10:56:05;;;;;;;7.37;4.77;;;10.10;99.90;;;;;;5075312;28;20182;-72
2023/05/21 11:01:32;;;;;;;8.53;5.73;;;10.00;99.90;;;;;;5075354;28;20193;-69
2023/05/21 11:04:00;;;;;;;7.03;5.40;;;9.90;99.90;;;;;;5074779;28;20176;-70
2023/05/21 11:06:28;;;;;;;11.40;6.43;;;9.90;99.90;;;;;;5073337;28;20654;-69
2023/05/21 11:08:55;;;;;;;12.17;6.50;;;9.80;99.90;;;;;;5074123;28;20299;-70
2023/05/21 11:11:41;;;;;;;11.37;6.90;;;9.80;99.90;;;;;;5074125;28;20173;-69
2023/05/21 11:14:41;;;;;;;9.93;7.10;;;9.80;99.90;;;;;;5074202;28;20173;-69
2023/05/21 11:17:39;;;;;;;8.97;6.20;;;9.80;99.90;;;;;;5073972;28;20212;-69
2023/05/21 11:20:16;;;;;;;9.03;6.03;;;9.70;99.90;;;;;;5069624;28;20241;-68
2023/05/21 11:22:45;;;;;;;8.67;5.77;;;9.70;99.90;;;;;;5072652;28;20649;-67
2023/05/21 11:25:14;;;;;;;10.57;7.13;;;9.70;99.90;;;;;;5074043;28;20179;-68
2023/05/21 11:27:42;;;;;;;13.80;6.97;;;9.60;99.90;;;;;;5073674;28;20200;-72
2023/05/21 11:30:19;;;;;;;13.60;7.07;;;9.60;99.90;;;;;;5074049;28;20212;-69
2023/05/21 11:33:09;;;;;;;14.67;7.40;;;9.50;99.90;;;;;;5072512;28;20612;-72
2023/05/21 11:35:59;;;;;;;10.17;7.00;;;9.50;99.90;;;;;;5073802;28;20187;-71
2023/05/21 11:38:32;;;;;;;10.50;6.77;;;9.40;99.90;;;;;;5070730;28;20589;-68
2023/05/21 11:41:06;;;;;;;13.47;6.73;;;9.40;99.90;;;;;;5072557;28;20266;-68
2023/05/21 11:43:33;;;;;;;8.93;6.20;;;9.30;99.90;;;;;;5071832;28;20181;-69
2023/05/21 11:46:01;;;;;;;11.23;5.90;;;9.20;99.90;;;;;;5072468;28;20266;-70
2023/05/21 11:48:31;;;;;;;13.97;7.00;;;9.20;99.90;;;;;;5072462;28;20252;-69
2023/05/21 11:50:59;;;;;;;11.10;6.40;;;9.10;99.90;;;;;;5069538;28;20217;-70
2023/05/21 11:53:29;;;;;;;10.80;6.73;;;9.10;99.90;;;;;;5071644;28;20646;-68
2023/05/21 11:55:58;;;;;;;11.07;6.73;;;9.10;99.90;;;;;;5072781;28;20208;-69
2023/05/21 11:58:27;;;;;;;9.40;5.90;;;9.10;99.90;;;;;;5071389;28;20257;-68
2023/05/21 12:00:58;;;;;;;7.93;4.57;;;9.10;99.90;;;;;;5072849;28;20175;-68
2023/05/21 12:03:25;;;;;;;6.63;4.33;;;9.10;99.90;;;;;;5072759;28;20183;-71
2023/05/21 12:05:53;;;;;;;7.17;4.47;;;9.10;99.90;;;;;;5072787;28;20536;-68
2023/05/21 12:08:26;;;;;;;7.40;4.50;;;9.00;99.90;;;;;;5071220;28;20208;-70
2023/05/21 12:11:00;;;;;;;8.17;5.60;;;9.00;99.90;;;;;;5064203;28;20667;-72
2023/05/21 12:13:28;;;;;;;9.20;6.00;;;8.90;99.90;;;;;;5072240;28;20177;-69
2023/05/21 12:15:55;;;;;;;10.57;5.87;;;8.90;99.90;;;;;;5072909;28;20271;-73
2023/05/21 12:18:24;;;;;;;10.63;6.27;;;8.80;99.90;;;;;;5072407;28;20255;-72
2023/05/21 12:20:52;;;;;;;10.33;5.97;;;8.80;99.90;;;;;;5056906;28;20181;-73
2023/05/21 12:23:23;;;;;;;11.73;6.40;;;8.70;99.90;;;;;;5072333;28;20539;-73
2023/05/21 12:25:52;;;;;;;9.33;6.43;;;8.60;99.90;;;;;;5072449;28;20174;-72
2023/05/21 12:28:21;;;;;;;10.43;6.10;;;8.50;99.90;;;;;;5072552;28;20206;-72
2023/05/21 12:30:49;;;;;;;8.80;5.93;;;8.50;99.90;;;;;;5072329;28;20180;-71
2023/05/21 12:33:18;;;;;;;8.73;6.27;;;8.50;99.90;;;;;;5071899;28;20242;-72
2023/05/21 12:35:51;;;;;;;10.40;6.83;;;8.50;99.90;;;;;;5071633;28;20565;-72
2023/05/21 12:38:18;;;;;;;11.43;7.07;;;8.50;99.90;;;;;;5071496;28;20218;-71
2023/05/21 12:40:49;;;;;;;12.87;6.57;;;8.50;99.90;;;;;;5071731;28;20213;-72
2023/05/21 12:43:17;;;;;;;10.57;6.93;;;8.50;99.90;;;;;;5072037;28;20212;-72
2023/05/21 12:45:45;;;;;;;10.87;6.37;;;8.40;99.90;;;;;;5070732;28;20301;-73
2023/05/21 12:48:12;;;;;;;10.37;6.83;;;8.40;99.90;;;;;;5071734;28;20264;-72
2023/05/21 12:50:40;;;;;;;11.47;7.13;;;8.30;99.90;;;;;;5070485;28;20299;-72
2023/05/21 12:53:12;;;;;;;11.33;6.10;;;8.30;99.90;;;;;;5072187;28;20187;-72
2023/05/21 12:55:39;;;;;;;9.23;6.07;;;8.30;99.90;;;;;;5071822;28;20172;-72
2023/05/21 12:58:07;;;;;;;11.10;6.57;;;8.30;99.90;;;;;;5072106;28;20246;-73
2023/05/21 13:00:34;;;;;;;9.10;6.10;;;8.20;99.90;;;;;;5071839;28;20190;-72
2023/05/21 13:03:05;;;;;;;9.77;6.67;;;8.10;99.90;;;;;;5071172;28;20203;-72
2023/05/21 13:05:33;;;;;;;9.80;6.30;;;8.10;99.90;;;;;;5072228;28;20179;-71
2023/05/21 13:08:00;;;;;;;9.37;6.00;;;8.00;99.90;;;;;;5070506;28;20233;-72